Frankfurt Airport

EDDF · Hesse, 德国

罗盘
风向 的 风向 310° 法兰克福机场 7R/25L
风: 7 kt, 3 beaufort

3 kt

6 kt
改变
0 ft 1.000 2.000 3.000 4.000 5.000
没有观察到明显的云
METAR EDDF 040420Z AUTO 31007KT 9000 NSC 08/05 Q1007 NOSIG

METAR 法兰克福机场 - EDDF/FRA

法兰克福机场是,德国中的大型机场。 该机场位于纬度50,03263和经度8,54064。 该机场有4条跑道: 7R/25L, 18/36, 7L/25R 和 7C/25C. 本场的ICAO机场代码为EDDF。 该机场的IATA代码为FRA。 机场在Langen FIR中。

该航空气象观测是针对法兰克福机场在2024年3月4日 05:20, 当地时间进行的。

机场观察

风向为310°,速度为7 kt。

可见度为9 km。

有没有观察到明显的云。 没有观察到天花板。

温度为8 °C,阵风为4 °C。 露点为5 °C,相对湿度为82%。 海平面上的气压为1007 hPa (QNH)。

白天

今天,太阳从07:01升起,在18:13降落。 这适用于法兰克福机场,世界夏令时可能有所不同。 当地时间与世界标准时间之间的时差为+1 小时。 当前,没有夏令时有效。

公司介绍

在这个机场,你可以找到飞行学校。 这个机场上的公司有FlightCrew Academy 和 InterCockpit。

体会

到Vliegles.nl去找飞行课程,跳伞和其他飞行体验。 浏览页面,了解法兰克福机场附近所有可用的活动。 你也可以使用搜索功能来寻找你所在地附近的特定飞行课程、跳伞或其他飞行体验。

跑道

Id 标题 侧风 逆风 侧风 %
7R/25L 068°-248° 6 kt 3 kt 88 %
18/36 179°-359° 5 kt 5 kt 75 %
7L/25R 068°-248° 6 kt 3 kt 88 %
7C/25C 068°-248° 6 kt 3 kt 88 %

逆风成分最大的方向会被突出显示,并用于横风计算。 这并不一定意味着这个方向在使用。

乌云

- NSC 没有观察到明显的云

温度 & 天气

温度 8 °C
露点 5 °C
相对湿度 82%
风寒 4 °C
Kp-index 2 (0-9)

白天

日出
07:01 (1:22)
中午
12:37
日落
18:13

小工具

你想在你的网站上有一个关于法兰克福机场的当前航空天气(METAR)的小部件吗?

显示HTML代码
?>